Time;durP1;ratioP1;P1;durP2;ratioP2;P2;SDS_P1;SDS_P2;PMS_P1;PMS_P2;Temp;Humidity;BMP_temperature;BMP_pressure;BME280_temperature;BME280_humidity;BME280_pressure;Samples;Min_cycle;Max_cycle;Signal;HPM_P1;HPM_P2
2023/07/13 00:04:54;;;;;;;;;;;;;;;22.08;52.06;99604.34;10245698;28;931;-70
2023/07/13 00:09:50;;;;;;;;;;;;;;;22.07;52.21;99609.78;10245525;28;952;-70
2023/07/13 00:14:46;;;;;;;;;;;;;;;22.06;52.07;99606.28;10245256;28;1969;-70
2023/07/13 00:19:41;;;;;;;;;;;;;;;22.06;51.92;99616.88;10245787;28;1176;-70
2023/07/13 00:24:41;;;;;;;;;;;;;;;22.06;52.07;99613.34;10245577;28;1181;-70
2023/07/13 00:29:37;;;;;;;;;;;;;;;22.04;51.83;99610.81;10245321;28;863;-70
2023/07/13 00:34:33;;;;;;;;;;;;;;;22.04;51.96;99613.47;10245183;28;1922;-70
2023/07/13 00:39:29;;;;;;;;;;;;;;;22.03;51.73;99605.59;10245089;28;817;-70
2023/07/13 00:44:25;;;;;;;;;;;;;;;22.03;51.87;99611.78;10244689;28;833;-70
2023/07/13 00:49:21;;;;;;;;;;;;;;;22.02;51.81;99612.72;10244357;28;858;-70
2023/07/13 00:54:17;;;;;;;;;;;;;;;22.03;51.69;99611.78;10243926;28;1969;-70
2023/07/13 00:59:12;;;;;;;;;;;;;;;22.01;51.73;99605.72;10243497;28;905;-70
2023/07/13 01:04:08;;;;;;;;;;;;;;;22.01;51.67;99594.25;10253044;28;846;-70
2023/07/13 01:09:04;;;;;;;;;;;;;;;22.00;51.71;99601.31;10257924;28;853;-70
2023/07/13 01:14:01;;;;;;;;;;;;;;;22.00;51.29;99600.47;10257159;28;1894;-70
2023/07/13 01:19:01;;;;;;;;;;;;;;;21.99;51.45;99604.94;10258067;28;844;-70
2023/07/13 01:23:57;;;;;;;;;;;;;;;22.00;51.67;99603.13;10239510;28;1426;-70
2023/07/13 01:28:52;;;;;;;;;;;;;;;22.00;51.44;99609.28;10256882;28;868;-70
2023/07/13 01:33:48;;;;;;;;;;;;;;;21.99;51.66;99599.63;10256976;28;1977;-70
2023/07/13 01:38:44;;;;;;;;;;;;;;;21.97;51.59;99595.38;10256799;28;755;-70
2023/07/13 01:43:40;;;;;;;;;;;;;;;21.97;51.57;99606.84;10256640;28;867;-70
2023/07/13 01:48:36;;;;;;;;;;;;;;;21.96;51.40;99599.84;10256463;28;869;-70
2023/07/13 01:53:32;;;;;;;;;;;;;;;21.97;51.40;99606.00;10257239;28;1902;-70
2023/07/13 01:58:28;;;;;;;;;;;;;;;21.98;51.48;99602.38;10255771;28;1481;-70
2023/07/13 02:03:23;;;;;;;;;;;;;;;21.97;51.74;99609.50;10255757;28;837;-70
2023/07/13 02:08:19;;;;;;;;;;;;;;;21.97;51.66;99606.84;10256813;28;838;-70
2023/07/13 02:13:15;;;;;;;;;;;;;;;21.96;51.61;99605.16;10255003;28;1901;-70
2023/07/13 02:18:14;;;;;;;;;;;;;;;21.97;51.82;99603.34;10250416;28;872;-70
2023/07/13 02:23:10;;;;;;;;;;;;;;;21.95;51.63;99608.72;10249808;28;1208;-70
2023/07/13 02:28:06;;;;;;;;;;;;;;;21.94;51.68;99606.19;10249447;28;776;-70
2023/07/13 02:33:02;;;;;;;;;;;;;;;21.93;51.41;99605.34;10249238;28;1922;-70
2023/07/13 02:37:58;;;;;;;;;;;;;;;21.92;51.42;99602.78;10250239;28;761;-70
2023/07/13 02:42:53;;;;;;;;;;;;;;;21.92;51.50;99608.06;10248250;28;904;-70
2023/07/13 02:47:49;;;;;;;;;;;;;;;21.89;51.34;99604.66;10248668;28;928;-70
2023/07/13 02:52:45;;;;;;;;;;;;;;;21.89;51.44;99593.19;10248982;28;1969;-70
2023/07/13 02:57:41;;;;;;;;;;;;;;;21.87;51.46;99601.25;10248259;28;807;-70
2023/07/13 03:02:37;;;;;;;;;;;;;;;21.87;51.50;99603.06;10248103;28;921;-70
2023/07/13 03:07:33;;;;;;;;;;;;;;;21.87;51.39;99611.84;10248691;28;947;-70
2023/07/13 03:12:29;;;;;;;;;;;;;;;21.87;51.40;99606.56;10247948;28;1906;-70
2023/07/13 03:17:25;;;;;;;;;;;;;;;21.87;51.39;99613.66;10247512;28;864;-70
2023/07/13 03:22:20;;;;;;;;;;;;;;;21.87;51.59;99616.31;10246838;28;1458;-70
2023/07/13 03:27:17;;;;;;;;;;;;;;;21.88;51.61;99626.00;10246506;28;808;-70
2023/07/13 03:32:12;;;;;;;;;;;;;;;21.85;51.47;99623.50;10246792;28;1918;-70
2023/07/13 03:37:09;;;;;;;;;;;;;;;21.85;51.79;99623.50;10247370;28;806;-70
2023/07/13 03:42:04;;;;;;;;;;;;;;;21.82;51.67;99631.66;10247214;28;802;-70
2023/07/13 03:47:00;;;;;;;;;;;;;;;21.82;51.48;99639.63;10246364;28;818;-70
2023/07/13 03:51:56;;;;;;;;;;;;;;;21.80;51.31;99647.69;10246401;28;1906;-70
2023/07/13 03:56:52;;;;;;;;;;;;;;;21.78;51.38;99644.28;10245950;28;822;-70
2023/07/13 04:01:48;;;;;;;;;;;;;;;21.77;51.21;99633.75;10245818;28;898;-70
2023/07/13 04:06:44;;;;;;;;;;;;;;;21.77;51.48;99636.41;10245649;28;878;-70
2023/07/13 04:11:40;;;;;;;;;;;;;;;21.76;51.19;99647.97;10245449;28;1906;-70
2023/07/13 04:16:36;;;;;;;;;;;;;;;21.75;51.21;99648.94;10227583;28;777;-70
2023/07/13 04:21:31;;;;;;;;;;;;;;;21.74;51.22;99650.72;10244677;28;1126;-70
2023/07/13 04:26:27;;;;;;;;;;;;;;;21.74;51.33;99649.88;10244916;28;816;-71
2023/07/13 04:31:23;;;;;;;;;;;;;;;21.73;51.24;99651.66;10245378;28;1918;-70
2023/07/13 04:36:19;;;;;;;;;;;;;;;21.72;51.06;99651.75;10244583;28;857;-71
2023/07/13 04:41:15;;;;;;;;;;;;;;;21.71;51.36;99653.56;10244485;28;860;-71
2023/07/13 04:46:11;;;;;;;;;;;;;;;21.71;51.13;99652.72;10245191;28;775;-71
2023/07/13 04:51:07;;;;;;;;;;;;;;;21.70;51.14;99656.31;10244833;28;1894;-71
2023/07/13 04:56:03;;;;;;;;;;;;;;;21.66;51.11;99653.84;10244171;28;1044;-71
2023/07/13 05:00:59;;;;;;;;;;;;;;;21.65;50.99;99654.78;10242915;28;1123;-71
2023/07/13 05:05:54;;;;;;;;;;;;;;;21.64;51.15;99655.75;10243756;28;861;-71
2023/07/13 05:10:50;;;;;;;;;;;;;;;21.62;51.01;99654.97;10243777;28;1894;-71
2023/07/13 05:15:46;;;;;;;;;;;;;;;21.61;51.06;99663.91;10243654;28;956;-71
2023/07/13 05:20:42;;;;;;;;;;;;;;;21.61;51.02;99663.03;10243396;28;1228;-71
2023/07/13 05:25:38;;;;;;;;;;;;;;;21.61;51.17;99673.63;10243674;28;739;-71
2023/07/13 05:30:34;;;;;;;;;;;;;;;21.61;51.22;99678.94;10243011;28;1973;-72
2023/07/13 05:35:30;;;;;;;;;;;;;;;21.61;51.19;99685.13;10243648;28;908;-70
2023/07/13 05:40:26;;;;;;;;;;;;;;;21.61;51.33;99692.19;10243748;28;924;-71
2023/07/13 05:45:21;;;;;;;;;;;;;;;21.58;51.06;99695.88;10243240;28;1009;-71
2023/07/13 05:50:17;;;;;;;;;;;;;;;21.56;51.13;99700.44;10247315;28;1894;-71
2023/07/13 05:55:13;;;;;;;;;;;;;;;21.55;51.17;99701.38;10248538;28;1169;-72
2023/07/13 06:00:09;;;;;;;;;;;;;;;21.52;51.01;99706.88;10250540;28;821;-71
2023/07/13 06:05:05;;;;;;;;;;;;;;;21.53;51.14;99710.38;10250376;28;857;-67
2023/07/13 06:10:01;;;;;;;;;;;;;;;21.55;51.07;99714.63;10250484;28;877;-67
2023/07/13 06:14:57;;;;;;;;;;;;;;;21.54;51.09;99715.59;10249909;28;1918;-67
2023/07/13 06:19:52;;;;;;;;;;;;;;;21.53;51.16;99716.53;10249712;28;813;-67
2023/07/13 06:24:48;;;;;;;;;;;;;;;21.51;51.23;99714.91;10250472;28;1385;-67
2023/07/13 06:29:45;;;;;;;;;;;;;;;21.50;51.14;99726.47;10249911;28;869;-66
2023/07/13 06:34:40;;;;;;;;;;;;;;;21.52;51.27;99725.44;10249232;28;1910;-66
2023/07/13 06:39:36;;;;;;;;;;;;;;;21.53;51.25;99739.53;10249532;28;885;-66
2023/07/13 06:44:32;;;;;;;;;;;;;;;21.52;51.21;99737.84;10248723;28;900;-66
2023/07/13 06:49:28;;;;;;;;;;;;;;;21.53;51.47;99744.84;10248413;28;932;-66
2023/07/13 06:54:24;;;;;;;;;;;;;;;21.51;51.45;99750.25;10248368;28;1897;-66
2023/07/13 06:59:20;;;;;;;;;;;;;;;21.51;51.49;99738.78;10247540;28;933;-66
2023/07/13 07:04:16;;;;;;;;;;;;;;;21.51;51.71;99744.06;10248011;28;818;-66
2023/07/13 07:09:13;;;;;;;;;;;;;;;21.51;51.65;99747.63;10247810;28;858;-67
2023/07/13 07:14:09;;;;;;;;;;;;;;;21.52;51.71;99743.16;10248461;28;1902;-66
2023/07/13 07:19:05;;;;;;;;;;;;;;;21.50;51.73;99745.88;10248107;28;877;-67
2023/07/13 07:24:00;;;;;;;;;;;;;;;21.52;52.13;99748.47;10247462;28;1122;-66
2023/07/13 07:28:56;;;;;;;;;;;;;;;21.51;52.11;99755.56;10247125;28;972;-67
2023/07/13 07:33:52;;;;;;;;;;;;;;;21.52;51.98;99761.72;10246640;28;1923;-67
2023/07/13 07:38:48;;;;;;;;;;;;;;;21.50;52.10;99766.25;10246969;28;940;-67
2023/07/13 07:43:44;;;;;;;;;;;;;;;21.48;51.98;99760.19;10247168;28;1075;-67
2023/07/13 07:48:40;;;;;;;;;;;;;;;21.46;52.07;99749.69;10246328;28;993;-67
2023/07/13 07:53:36;;;;;;;;;;;;;;;21.47;52.35;99742.56;10245453;28;2012;-67
2023/07/13 07:58:31;;;;;;;;;;;;;;;21.48;52.27;99757.53;10245746;28;914;-66
2023/07/13 08:03:27;;;;;;;;;;;;;;;21.47;52.52;99761.97;10246415;28;842;-67
2023/07/13 08:08:23;;;;;;;;;;;;;;;21.46;52.60;99760.28;10245330;28;1135;-67
2023/07/13 08:13:19;;;;;;;;;;;;;;;21.48;52.44;99757.53;10245213;28;1905;-67
2023/07/13 08:18:16;;;;;;;;;;;;;;;21.46;52.46;99754.97;10245290;28;755;-67
2023/07/13 08:23:11;;;;;;;;;;;;;;;21.45;52.60;99745.28;10245308;28;1320;-67
2023/07/13 08:28:07;;;;;;;;;;;;;;;21.45;52.58;99751.44;10244868;28;798;-67
2023/07/13 08:33:03;;;;;;;;;;;;;;;21.45;52.66;99754.09;10245145;28;1918;-67
2023/07/13 08:38:00;;;;;;;;;;;;;;;21.44;52.65;99757.72;10244561;28;755;-67
2023/07/13 08:42:56;;;;;;;;;;;;;;;21.44;52.82;99756.84;10244502;28;765;-67
2023/07/13 08:47:53;;;;;;;;;;;;;;;21.43;52.78;99753.34;10243787;28;782;-67
2023/07/13 08:52:49;;;;;;;;;;;;;;;21.43;52.68;99752.47;10244138;28;1898;-67
2023/07/13 08:57:45;;;;;;;;;;;;;;;21.42;52.82;99750.78;10226760;28;737;-67
2023/07/13 09:02:41;;;;;;;;;;;;;;;21.42;52.88;99742.84;10244056;28;783;-67
2023/07/13 09:07:36;;;;;;;;;;;;;;;21.42;53.03;99745.47;10244504;28;822;-67
2023/07/13 09:12:33;;;;;;;;;;;;;;;21.41;52.81;99747.28;10244488;28;1898;-66
2023/07/13 09:17:29;;;;;;;;;;;;;;;21.39;52.92;99751.81;10243642;28;889;-67
2023/07/13 09:22:26;;;;;;;;;;;;;;;21.39;52.94;99751.81;10243635;28;1376;-67
2023/07/13 09:27:22;;;;;;;;;;;;;;;21.38;52.96;99755.44;10252406;28;940;-67
2023/07/13 09:32:18;;;;;;;;;;;;;;;21.39;53.03;99758.94;10251505;28;1969;-66
2023/07/13 09:37:14;;;;;;;;;;;;;;;21.38;52.93;99757.22;10251445;28;960;-67
2023/07/13 09:42:10;;;;;;;;;;;;;;;21.38;52.90;99759.88;10251348;28;890;-66
2023/07/13 09:47:06;;;;;;;;;;;;;;;21.36;52.91;99764.38;10251831;28;798;-67
2023/07/13 09:52:02;;;;;;;;;;;;;;;21.37;53.05;99766.06;10251246;28;1898;-66
2023/07/13 09:56:58;;;;;;;;;;;;;;;21.37;53.00;99771.38;10250370;28;878;-67
2023/07/13 10:01:54;;;;;;;;;;;;;;;21.35;53.26;99767.94;10250804;28;873;-67
2023/07/13 10:06:51;;;;;;;;;;;;;;;21.35;53.29;99774.13;10250727;28;798;-67
2023/07/13 10:11:47;;;;;;;;;;;;;;;21.35;53.20;99773.25;10249706;28;1957;-67
2023/07/13 10:16:43;;;;;;;;;;;;;;;21.34;53.31;99775.06;10250591;28;897;-66
2023/07/13 10:21:39;;;;;;;;;;;;;;;21.34;53.42;99759.16;10250530;28;1280;-67
2023/07/13 10:26:35;;;;;;;;;;;;;;;21.34;53.27;99771.56;10249506;28;965;-67
2023/07/13 10:31:31;;;;;;;;;;;;;;;21.33;53.34;99775.16;10249317;28;1910;-68
2023/07/13 10:36:27;;;;;;;;;;;;;;;21.34;53.33;99774.22;10248452;28;925;-68
2023/07/13 10:41:23;;;;;;;;;;;;;;;21.32;53.40;99776.94;10249689;28;857;-68
2023/07/13 10:46:19;;;;;;;;;;;;;;;21.32;53.24;99779.59;10248849;28;887;-68
2023/07/13 10:51:14;;;;;;;;;;;;;;;21.32;53.01;99778.75;10248999;28;1950;-68
2023/07/13 10:56:12;;;;;;;;;;;;;;;21.30;53.03;99778.84;10248501;28;791;-68
2023/07/13 11:01:08;;;;;;;;;;;;;;;21.30;53.09;99778.84;10248879;28;838;-69
2023/07/13 11:06:05;;;;;;;;;;;;;;;21.31;52.85;99790.31;10248062;28;894;-65
2023/07/13 11:11:01;;;;;;;;;;;;;;;21.33;52.93;99791.06;10248327;28;1898;-65
2023/07/13 11:15:57;;;;;;;;;;;;;;;21.32;53.03;99789.34;10248185;28;945;-68
2023/07/13 11:20:53;;;;;;;;;;;;;;;21.32;53.07;99789.34;10247395;28;1110;-68
2023/07/13 11:25:49;;;;;;;;;;;;;;;21.32;53.03;99789.34;10246768;28;859;-69
2023/07/13 11:30:44;;;;;;;;;;;;;;;21.32;53.41;99789.34;10247076;28;1910;-67
2023/07/13 11:35:40;;;;;;;;;;;;;;;21.32;53.20;99784.88;10246616;28;778;-68
2023/07/13 11:40:36;;;;;;;;;;;;;;;21.32;53.03;99784.88;10246777;28;828;-67
2023/07/13 11:45:32;;;;;;;;;;;;;;;21.33;53.46;99788.41;10245638;28;872;-68
2023/07/13 11:50:28;;;;;;;;;;;;;;;21.34;53.34;99798.91;10246902;28;1894;-68
2023/07/13 11:55:24;;;;;;;;;;;;;;;21.33;53.68;99807.84;10246760;28;779;-68
2023/07/13 12:00:20;;;;;;;;;;;;;;;21.33;53.46;99791.91;10244728;28;1024;-68
2023/07/13 12:05:17;;;;;;;;;;;;;;;21.33;53.64;99791.91;10245777;28;873;-68
2023/07/13 12:10:14;;;;;;;;;;;;;;;21.36;52.95;99794.41;10245565;28;852;-68
2023/07/13 12:15:10;;;;;;;;;;;;;;;21.34;53.21;99792.78;10245939;28;1964;-68
2023/07/13 12:20:08;;;;;;;;;;;;;;;21.34;52.92;99782.16;10246165;28;814;-68
2023/07/13 12:25:05;;;;;;;;;;;;;;;21.33;53.27;99780.47;10244568;28;1275;-68
2023/07/13 12:30:01;;;;;;;;;;;;;;;21.34;52.66;99787.47;10245704;28;874;-68
2023/07/13 12:34:57;;;;;;;;;;;;;;;21.33;52.95;99781.31;10245328;28;1982;-68
2023/07/13 12:39:53;;;;;;;;;;;;;;;21.34;53.18;99772.41;10244811;28;882;-67
2023/07/13 12:44:50;;;;;;;;;;;;;;;21.33;52.88;99786.63;10244439;28;1086;-67
2023/07/13 12:49:46;;;;;;;;;;;;;;;21.34;53.02;99792.78;10243736;28;970;-68
2023/07/13 12:54:42;;;;;;;;;;;;;;;21.35;53.29;99781.22;10244710;28;1911;-67
2023/07/13 12:59:38;;;;;;;;;;;;;;;21.36;52.92;99769.69;10244235;28;818;-68
2023/07/13 13:04:34;;;;;;;;;;;;;;;21.36;53.12;99777.63;10243391;28;996;-68
2023/07/13 13:09:30;;;;;;;;;;;;;;;21.37;53.11;99777.53;10244006;28;972;-67
2023/07/13 13:14:26;;;;;;;;;;;;;;;21.36;53.22;99785.59;10244074;28;1902;-68
2023/07/13 13:19:22;;;;;;;;;;;;;;;21.37;53.17;99779.34;10243244;28;854;-68
2023/07/13 13:24:17;;;;;;;;;;;;;;;21.37;53.19;99787.28;10242981;28;1315;-67
2023/07/13 13:29:14;;;;;;;;;;;;;;;21.38;53.23;99778.44;10243051;28;893;-65
2023/07/13 13:34:09;;;;;;;;;;;;;;;21.36;53.15;99780.28;10244345;28;1914;-68
2023/07/13 13:39:06;;;;;;;;;;;;;;;21.38;52.97;99789.03;10243698;28;918;-68
2023/07/13 13:44:05;;;;;;;;;;;;;;;21.37;52.98;99797.91;10243084;28;837;-68
2023/07/13 13:49:01;;;;;;;;;;;;;;;21.38;52.70;99797.00;10244001;28;903;-67
2023/07/13 13:53:57;;;;;;;;;;;;;;;21.37;53.10;99793.44;10242776;28;1954;-68
2023/07/13 13:58:53;;;;;;;;;;;;;;;21.38;52.97;99789.03;10243312;28;794;-68
2023/07/13 14:03:51;;;;;;;;;;;;;;;21.38;53.17;99794.34;10243748;28;844;-67
2023/07/13 14:08:50;;;;;;;;;;;;;;;21.39;52.88;99798.69;10244096;28;868;-68
2023/07/13 14:13:46;;;;;;;;;;;;;;;21.39;53.17;99811.97;10249245;28;1898;-68
2023/07/13 14:18:42;;;;;;;;;;;;;;;21.41;53.09;99858.66;10250149;28;1579;-68
2023/07/13 14:23:38;;;;;;;;;;;;;;;21.42;52.88;99859.50;10250090;28;1110;-68
2023/07/13 14:28:35;;;;;;;;;;;;;;;21.41;52.97;99858.66;10249346;28;1005;-67
2023/07/13 14:33:31;;;;;;;;;;;;;;;21.42;53.14;99854.19;10248924;28;1977;-69
2023/07/13 14:38:26;;;;;;;;;;;;;;;21.40;53.17;99862.22;10248906;28;1004;-68
2023/07/13 14:43:24;;;;;;;;;;;;;;;21.41;53.46;99852.50;10248823;28;914;-67
2023/07/13 14:48:20;;;;;;;;;;;;;;;21.41;53.70;99852.50;10248468;28;911;-68
2023/07/13 14:53:16;;;;;;;;;;;;;;;21.44;53.56;99862.94;10247697;28;1961;-67
2023/07/13 14:58:13;;;;;;;;;;;;;;;21.44;53.69;99852.31;10248269;28;869;-67
2023/07/13 15:03:09;;;;;;;;;;;;;;;21.45;53.88;99856.66;10247479;28;775;-67
2023/07/13 15:08:05;;;;;;;;;;;;;;;21.45;53.94;99861.97;10247967;28;764;-68
2023/07/13 15:13:01;;;;;;;;;;;;;;;21.45;53.87;99876.09;10247223;28;1894;-68
2023/07/13 15:17:57;;;;;;;;;;;;;;;21.44;53.87;99878.84;10248017;28;859;-68
2023/07/13 15:22:53;;;;;;;;;;;;;;;21.43;53.86;99888.59;10247332;28;1065;-67
2023/07/13 15:27:48;;;;;;;;;;;;;;;21.43;53.87;99890.38;10247334;28;890;-68
2023/07/13 15:32:44;;;;;;;;;;;;;;;21.42;53.96;99883.38;10247377;28;1914;-67
2023/07/13 15:37:40;;;;;;;;;;;;;;;21.42;54.08;99889.53;10248225;28;904;-67
2023/07/13 15:42:38;;;;;;;;;;;;;;;21.43;53.92;99885.94;10247376;28;936;-68
2023/07/13 15:47:34;;;;;;;;;;;;;;;21.43;53.97;99871.81;10246496;28;823;-67
2023/07/13 15:52:30;;;;;;;;;;;;;;;21.43;54.11;99875.34;10246194;28;1967;-68
2023/07/13 15:57:26;;;;;;;;;;;;;;;21.42;54.07;99870.97;10246124;28;802;-68
2023/07/13 16:02:22;;;;;;;;;;;;;;;21.44;53.98;99865.59;10245774;28;905;-68
2023/07/13 16:07:19;;;;;;;;;;;;;;;21.45;54.15;99860.19;10245665;28;876;-68
2023/07/13 16:12:15;;;;;;;;;;;;;;;21.46;54.00;99853.09;10246431;28;1894;-72
2023/07/13 16:17:11;;;;;;;;;;;;;;;21.47;54.01;99852.16;10245409;28;852;-68
2023/07/13 16:22:06;;;;;;;;;;;;;;;21.46;53.98;99858.41;10245252;28;1310;-68
2023/07/13 16:27:03;;;;;;;;;;;;;;;21.46;54.23;99861.06;10244544;28;854;-68
2023/07/13 16:32:01;;;;;;;;;;;;;;;21.45;53.95;99864.63;10245449;28;1910;-68
2023/07/13 16:36:57;;;;;;;;;;;;;;;21.46;54.06;99874.31;10244984;28;876;-67
2023/07/13 16:41:53;;;;;;;;;;;;;;;21.45;54.07;99899.94;10245873;28;885;-68
2023/07/13 16:46:49;;;;;;;;;;;;;;;21.47;54.10;99937.00;10245060;28;826;-67
2023/07/13 16:51:45;;;;;;;;;;;;;;;21.46;53.98;99983.03;10244330;28;1963;-68
2023/07/13 16:56:41;;;;;;;;;;;;;;;21.46;54.04;99967.13;10244171;28;942;-68
2023/07/13 17:01:37;;;;;;;;;;;;;;;21.45;54.03;99950.34;10244136;28;965;-68
2023/07/13 17:06:32;;;;;;;;;;;;;;;21.45;53.89;99944.19;10243522;28;948;-68
2023/07/13 17:11:32;;;;;;;;;;;;;;;21.45;54.06;99933.56;10244551;28;1894;-68
2023/07/13 17:16:28;;;;;;;;;;;;;;;21.45;53.94;99928.28;10243854;28;910;-68
2023/07/13 17:21:24;;;;;;;;;;;;;;;21.44;54.09;99923.94;10243993;28;1094;-68
2023/07/13 17:26:19;;;;;;;;;;;;;;;21.44;53.98;99918.63;10244291;28;1530;-68
2023/07/13 17:31:17;;;;;;;;;;;;;;;21.44;54.14;99915.97;10244182;28;1902;-68
2023/07/13 17:36:14;;;;;;;;;;;;;;;21.43;54.06;99903.63;10244321;28;837;-68
2023/07/13 17:41:11;;;;;;;;;;;;;;;21.43;53.94;99900.97;10243359;28;906;-68
2023/07/13 17:46:07;;;;;;;;;;;;;;;21.44;54.19;99908.00;10247783;28;826;-68
2023/07/13 17:51:03;;;;;;;;;;;;;;;21.43;54.07;99907.16;10251104;28;1953;-68
2023/07/13 17:55:59;;;;;;;;;;;;;;;21.43;54.04;99899.22;10250921;28;933;-68
2023/07/13 18:00:54;;;;;;;;;;;;;;;21.42;54.08;99900.13;10251435;28;960;-68
2023/07/13 18:05:51;;;;;;;;;;;;;;;21.42;54.15;99900.13;10251229;28;807;-67
2023/07/13 18:10:47;;;;;;;;;;;;;;;21.43;54.30;99900.97;10250848;28;1906;-68
2023/07/13 18:15:42;;;;;;;;;;;;;;;21.43;54.29;99914.25;10250144;28;826;-67
2023/07/13 18:20:42;;;;;;;;;;;;;;;21.43;54.28;99914.25;10249723;28;1515;-68
2023/07/13 18:25:38;;;;;;;;;;;;;;;21.42;54.17;99915.19;10250382;28;778;-68
2023/07/13 18:30:35;;;;;;;;;;;;;;;21.43;54.14;99914.25;10250352;28;866;-69
2023/07/13 18:35:31;;;;;;;;;;;;;;;21.41;54.14;99908.19;10249532;28;1981;-68
2023/07/13 18:40:29;;;;;;;;;;;;;;;21.41;54.16;99914.34;10248729;28;928;-68
2023/07/13 18:45:25;;;;;;;;;;;;;;;21.42;54.34;99908.09;10248929;28;978;-67
2023/07/13 18:50:21;;;;;;;;;;;;;;;21.42;54.27;99907.25;10249420;28;977;-68
2023/07/13 18:55:17;;;;;;;;;;;;;;;21.42;54.27;99908.09;10247026;28;1894;-67
2023/07/13 19:00:13;;;;;;;;;;;;;;;21.41;54.35;99909.03;10248357;28;966;-68
2023/07/13 19:05:09;;;;;;;;;;;;;;;21.41;54.28;99906.38;10248900;28;901;-67
2023/07/13 19:10:06;;;;;;;;;;;;;;;21.41;54.24;99902.88;10248678;28;889;-68
2023/07/13 19:15:02;;;;;;;;;;;;;;;21.41;54.44;99900.25;10248307;28;1894;-68
2023/07/13 19:19:58;;;;;;;;;;;;;;;21.41;54.37;99911.69;10247692;28;826;-68
2023/07/13 19:24:54;;;;;;;;;;;;;;;21.41;54.30;99916.16;10248034;28;1152;-68
2023/07/13 19:29:50;;;;;;;;;;;;;;;21.41;54.23;99917.00;10247330;28;847;-68
2023/07/13 19:34:46;;;;;;;;;;;;;;;21.41;54.28;99921.44;10247090;28;1918;-68
2023/07/13 19:39:42;;;;;;;;;;;;;;;21.41;54.28;99921.44;10246325;28;812;-68
2023/07/13 19:44:38;;;;;;;;;;;;;;;21.42;54.33;99936.41;10246986;28;924;-68
2023/07/13 19:49:34;;;;;;;;;;;;;;;21.40;54.40;99936.47;10246114;28;956;-68
2023/07/13 19:54:30;;;;;;;;;;;;;;;21.40;54.38;99938.28;10245597;28;1957;-67
2023/07/13 19:59:26;;;;;;;;;;;;;;;21.40;54.25;99944.44;10246788;28;1684;-68
2023/07/13 20:04:22;;;;;;;;;;;;;;;21.41;54.23;99945.31;10245977;28;768;-68
2023/07/13 20:09:17;;;;;;;;;;;;;;;21.40;54.37;99951.53;10245545;28;776;-67
2023/07/13 20:14:13;;;;;;;;;;;;;;;21.39;54.36;99947.19;10245562;28;1951;-68
2023/07/13 20:19:09;;;;;;;;;;;;;;;21.39;54.23;99955.16;10245534;28;877;-68
2023/07/13 20:24:05;;;;;;;;;;;;;;;21.39;54.28;99956.00;10244984;28;1401;-68
2023/07/13 20:29:02;;;;;;;;;;;;;;;21.39;54.30;99965.75;10245164;28;905;-68
2023/07/13 20:33:58;;;;;;;;;;;;;;;21.39;54.17;99971.06;10245565;28;1969;-68
2023/07/13 20:38:54;;;;;;;;;;;;;;;21.38;54.14;99966.69;10244789;28;755;-68
2023/07/13 20:43:50;;;;;;;;;;;;;;;21.38;54.18;99966.69;10244595;28;973;-68
2023/07/13 20:48:50;;;;;;;;;;;;;;;21.36;54.40;99961.44;10243984;28;930;-67
2023/07/13 20:53:46;;;;;;;;;;;;;;;21.37;54.34;99970.25;10243913;28;1959;-68
2023/07/13 20:58:41;;;;;;;;;;;;;;;21.37;54.18;99967.59;10244267;28;763;-67
2023/07/13 21:03:37;;;;;;;;;;;;;;;21.36;54.25;99973.84;10244846;28;821;-68
2023/07/13 21:08:33;;;;;;;;;;;;;;;21.37;54.30;99973.75;10245018;28;851;-68
2023/07/13 21:13:29;;;;;;;;;;;;;;;21.35;54.24;99973.00;10243953;28;1965;-66
2023/07/13 21:18:25;;;;;;;;;;;;;;;21.35;54.28;99972.13;10243420;28;864;-71
2023/07/13 21:23:21;;;;;;;;;;;;;;;21.35;54.41;99977.41;10252341;28;1359;-71
2023/07/13 21:28:17;;;;;;;;;;;;;;;21.35;54.33;99978.31;10252020;28;841;-71
2023/07/13 21:33:12;;;;;;;;;;;;;;;21.35;54.44;99980.94;10252045;28;1906;-71
2023/07/13 21:38:08;;;;;;;;;;;;;;;21.35;54.35;99982.72;10252063;28;850;-70
2023/07/13 21:43:04;;;;;;;;;;;;;;;21.34;54.47;99975.72;10252060;28;826;-71
2023/07/13 21:48:00;;;;;;;;;;;;;;;21.34;54.25;99975.72;10251237;28;768;-71
2023/07/13 21:52:56;;;;;;;;;;;;;;;21.34;54.23;99986.31;10251847;28;1898;-71
2023/07/13 21:57:52;;;;;;;;;;;;;;;21.34;54.38;99983.69;10250886;28;844;-70
2023/07/13 22:02:48;;;;;;;;;;;;;;;21.33;54.47;99981.97;10251915;28;944;-70
2023/07/13 22:07:44;;;;;;;;;;;;;;;21.33;54.26;99984.63;10249962;28;917;-70
2023/07/13 22:12:39;;;;;;;;;;;;;;;21.32;54.46;99970.50;10250248;28;1965;-70
2023/07/13 22:17:35;;;;;;;;;;;;;;;21.32;54.40;99970.50;10250163;28;781;-71
2023/07/13 22:22:31;;;;;;;;;;;;;;;21.32;54.22;99981.09;10250362;28;1145;-71
2023/07/13 22:27:28;;;;;;;;;;;;;;;21.30;54.28;99975.03;10249792;28;952;-71
2023/07/13 22:32:24;;;;;;;;;;;;;;;21.30;54.24;99980.34;10249880;28;1973;-71
2023/07/13 22:37:20;;;;;;;;;;;;;;;21.30;54.48;99984.75;10250026;28;813;-70
2023/07/13 22:42:16;;;;;;;;;;;;;;;21.29;54.42;99972.47;10249185;28;847;-71
2023/07/13 22:47:12;;;;;;;;;;;;;;;21.29;54.37;99975.97;10249116;28;775;-70
2023/07/13 22:52:08;;;;;;;;;;;;;;;21.29;54.24;99972.47;10248824;28;1902;-71
2023/07/13 22:57:04;;;;;;;;;;;;;;;21.28;54.36;99968.97;10249284;28;877;-71
2023/07/13 23:02:00;;;;;;;;;;;;;;;21.28;54.24;99968.09;10249009;28;857;-71
2023/07/13 23:06:56;;;;;;;;;;;;;;;21.28;54.36;99970.75;10248520;28;858;-71
2023/07/13 23:11:52;;;;;;;;;;;;;;;21.26;54.46;99970.84;10248879;28;1961;-71
2023/07/13 23:16:48;;;;;;;;;;;;;;;21.27;54.39;99966.38;10248533;28;850;-70
2023/07/13 23:21:44;;;;;;;;;;;;;;;21.27;54.34;99964.56;10247635;28;1270;-71
2023/07/13 23:26:40;;;;;;;;;;;;;;;21.24;54.27;99968.25;10247529;28;996;-71
2023/07/13 23:31:36;;;;;;;;;;;;;;;21.24;54.29;99965.59;10248320;28;1926;-71
2023/07/13 23:36:31;;;;;;;;;;;;;;;21.23;54.36;99966.56;10247377;28;917;-71
2023/07/13 23:41:27;;;;;;;;;;;;;;;21.24;54.35;99968.25;10246418;28;948;-71
2023/07/13 23:46:23;;;;;;;;;;;;;;;21.23;54.41;99960.41;10247584;28;778;-71
2023/07/13 23:51:19;;;;;;;;;;;;;;;21.22;54.46;99962.19;10246509;28;1906;-71
2023/07/13 23:56:15;;;;;;;;;;;;;;;21.22;54.44;99954.25;10246395;28;922;-70
